sensor_id;sensor_type;location;lat;lon;timestamp;temperature;humidity
26099;DHT22;13860;52.370;6.764;2022-10-17T00:00:13;14.70;83.00
26099;DHT22;13860;52.370;6.764;2022-10-17T00:03:16;14.70;83.00
26099;DHT22;13860;52.370;6.764;2022-10-17T00:06:20;14.70;83.00
26099;DHT22;13860;52.370;6.764;2022-10-17T00:09:24;14.60;83.00
26099;DHT22;13860;52.370;6.764;2022-10-17T00:12:27;14.60;83.00
26099;DHT22;13860;52.370;6.764;2022-10-17T00:15:33;14.60;83.00
26099;DHT22;13860;52.370;6.764;2022-10-17T00:18:37;14.60;83.10
26099;DHT22;13860;52.370;6.764;2022-10-17T00:21:40;14.60;83.10
26099;DHT22;13860;52.370;6.764;2022-10-17T00:24:44;14.60;83.10
26099;DHT22;13860;52.370;6.764;2022-10-17T00:27:47;14.60;83.10
26099;DHT22;13860;52.370;6.764;2022-10-17T00:30:57;14.50;83.10
26099;DHT22;13860;52.370;6.764;2022-10-17T00:34:00;14.60;83.30
26099;DHT22;13860;52.370;6.764;2022-10-17T00:37:04;14.50;83.30
26099;DHT22;13860;52.370;6.764;2022-10-17T00:40:09;14.50;83.30
26099;DHT22;13860;52.370;6.764;2022-10-17T00:43:15;14.50;83.40
26099;DHT22;13860;52.370;6.764;2022-10-17T00:46:23;14.50;83.40
26099;DHT22;13860;52.370;6.764;2022-10-17T00:49:30;14.50;83.40
26099;DHT22;13860;52.370;6.764;2022-10-17T00:52:35;14.50;83.40
26099;DHT22;13860;52.370;6.764;2022-10-17T00:55:45;14.40;83.40
26099;DHT22;13860;52.370;6.764;2022-10-17T00:58:50;14.40;83.50
26099;DHT22;13860;52.370;6.764;2022-10-17T01:01:58;14.40;83.50
26099;DHT22;13860;52.370;6.764;2022-10-17T01:05:03;14.40;83.50
26099;DHT22;13860;52.370;6.764;2022-10-17T01:08:09;14.40;83.40
26099;DHT22;13860;52.370;6.764;2022-10-17T01:11:24;14.40;83.50
26099;DHT22;13860;52.370;6.764;2022-10-17T01:14:36;14.40;83.70
26099;DHT22;13860;52.370;6.764;2022-10-17T01:17:57;14.40;83.70
26099;DHT22;13860;52.370;6.764;2022-10-17T01:21:28;14.30;83.80
26099;DHT22;13860;52.370;6.764;2022-10-17T01:24:49;14.30;83.80
26099;DHT22;13860;52.370;6.764;2022-10-17T01:28:13;14.30;83.90
26099;DHT22;13860;52.370;6.764;2022-10-17T01:31:24;14.30;83.90
26099;DHT22;13860;52.370;6.764;2022-10-17T01:34:33;14.30;83.80
26099;DHT22;13860;52.370;6.764;2022-10-17T01:37:44;14.30;83.90
26099;DHT22;13860;52.370;6.764;2022-10-17T01:40:52;14.30;84.00
26099;DHT22;13860;52.370;6.764;2022-10-17T01:44:02;14.30;84.00
26099;DHT22;13860;52.370;6.764;2022-10-17T01:47:12;14.30;84.10
26099;DHT22;13860;52.370;6.764;2022-10-17T01:50:20;14.30;84.10
26099;DHT22;13860;52.370;6.764;2022-10-17T01:53:30;14.30;84.10
26099;DHT22;13860;52.370;6.764;2022-10-17T01:56:38;14.30;84.20
26099;DHT22;13860;52.370;6.764;2022-10-17T01:59:46;14.30;84.20
26099;DHT22;13860;52.370;6.764;2022-10-17T02:02:55;14.30;84.20
26099;DHT22;13860;52.370;6.764;2022-10-17T02:06:01;14.30;84.30
26099;DHT22;13860;52.370;6.764;2022-10-17T02:09:20;14.30;84.30
26099;DHT22;13860;52.370;6.764;2022-10-17T02:12:40;14.30;84.40
26099;DHT22;13860;52.370;6.764;2022-10-17T02:16:01;14.30;84.40
26099;DHT22;13860;52.370;6.764;2022-10-17T02:19:33;14.30;84.50
26099;DHT22;13860;52.370;6.764;2022-10-17T02:22:43;14.30;84.50
26099;DHT22;13860;52.370;6.764;2022-10-17T02:25:54;14.30;84.40
26099;DHT22;13860;52.370;6.764;2022-10-17T02:29:05;14.30;84.50
26099;DHT22;13860;52.370;6.764;2022-10-17T02:32:12;14.30;84.50
26099;DHT22;13860;52.370;6.764;2022-10-17T02:35:20;14.30;84.60
26099;DHT22;13860;52.370;6.764;2022-10-17T02:38:25;14.30;84.60
26099;DHT22;13860;52.370;6.764;2022-10-17T02:41:30;14.30;84.60
26099;DHT22;13860;52.370;6.764;2022-10-17T02:44:37;14.30;84.60
26099;DHT22;13860;52.370;6.764;2022-10-17T02:47:49;14.30;84.70
26099;DHT22;13860;52.370;6.764;2022-10-17T02:51:01;14.30;84.80
26099;DHT22;13860;52.370;6.764;2022-10-17T02:54:10;14.30;84.80
26099;DHT22;13860;52.370;6.764;2022-10-17T02:57:20;14.30;84.80
26099;DHT22;13860;52.370;6.764;2022-10-17T03:00:25;14.30;84.80
26099;DHT22;13860;52.370;6.764;2022-10-17T03:03:31;14.30;84.90
26099;DHT22;13860;52.370;6.764;2022-10-17T03:06:38;14.30;84.90
26099;DHT22;13860;52.370;6.764;2022-10-17T03:09:42;14.30;84.90
26099;DHT22;13860;52.370;6.764;2022-10-17T03:12:46;14.30;85.00
26099;DHT22;13860;52.370;6.764;2022-10-17T03:15:49;14.30;84.90
26099;DHT22;13860;52.370;6.764;2022-10-17T03:18:53;14.30;84.80
26099;DHT22;13860;52.370;6.764;2022-10-17T03:21:59;14.30;84.90
26099;DHT22;13860;52.370;6.764;2022-10-17T03:25:05;14.30;85.00
26099;DHT22;13860;52.370;6.764;2022-10-17T03:28:10;14.30;85.10
26099;DHT22;13860;52.370;6.764;2022-10-17T03:31:16;14.30;85.20
26099;DHT22;13860;52.370;6.764;2022-10-17T03:34:21;14.30;85.20
26099;DHT22;13860;52.370;6.764;2022-10-17T03:37:26;14.30;85.30
26099;DHT22;13860;52.370;6.764;2022-10-17T03:40:31;14.30;85.30
26099;DHT22;13860;52.370;6.764;2022-10-17T03:43:34;14.30;85.30
26099;DHT22;13860;52.370;6.764;2022-10-17T03:46:38;14.40;85.30
26099;DHT22;13860;52.370;6.764;2022-10-17T03:49:42;14.30;85.40
26099;DHT22;13860;52.370;6.764;2022-10-17T03:52:48;14.40;85.30
26099;DHT22;13860;52.370;6.764;2022-10-17T03:55:52;14.40;85.40
26099;DHT22;13860;52.370;6.764;2022-10-17T03:58:57;14.40;85.40
26099;DHT22;13860;52.370;6.764;2022-10-17T04:02:02;14.40;85.40
26099;DHT22;13860;52.370;6.764;2022-10-17T04:05:07;14.30;85.40
26099;DHT22;13860;52.370;6.764;2022-10-17T04:08:12;14.40;85.60
26099;DHT22;13860;52.370;6.764;2022-10-17T04:11:45;14.40;85.60
26099;DHT22;13860;52.370;6.764;2022-10-17T04:14:49;14.40;85.50
26099;DHT22;13860;52.370;6.764;2022-10-17T04:17:52;14.40;85.40
26099;DHT22;13860;52.370;6.764;2022-10-17T04:20:56;14.40;85.50
26099;DHT22;13860;52.370;6.764;2022-10-17T04:24:02;14.40;85.50
26099;DHT22;13860;52.370;6.764;2022-10-17T04:27:32;14.40;85.70
26099;DHT22;13860;52.370;6.764;2022-10-17T04:30:36;14.40;85.70
26099;DHT22;13860;52.370;6.764;2022-10-17T04:33:47;14.40;85.80
26099;DHT22;13860;52.370;6.764;2022-10-17T04:36:51;14.40;85.90
26099;DHT22;13860;52.370;6.764;2022-10-17T04:39:57;14.40;86.00
26099;DHT22;13860;52.370;6.764;2022-10-17T04:43:04;14.50;86.20
26099;DHT22;13860;52.370;6.764;2022-10-17T04:46:12;14.50;86.20
26099;DHT22;13860;52.370;6.764;2022-10-17T04:49:18;14.50;86.30
26099;DHT22;13860;52.370;6.764;2022-10-17T04:52:26;14.50;86.30
26099;DHT22;13860;52.370;6.764;2022-10-17T04:55:36;14.60;86.40
26099;DHT22;13860;52.370;6.764;2022-10-17T04:58:42;14.60;86.50
26099;DHT22;13860;52.370;6.764;2022-10-17T05:01:47;14.60;86.40
26099;DHT22;13860;52.370;6.764;2022-10-17T05:04:52;14.60;86.50
26099;DHT22;13860;52.370;6.764;2022-10-17T05:07:56;14.60;86.50
26099;DHT22;13860;52.370;6.764;2022-10-17T05:11:15;14.70;86.50
26099;DHT22;13860;52.370;6.764;2022-10-17T05:14:19;14.70;86.50
26099;DHT22;13860;52.370;6.764;2022-10-17T05:17:23;14.70;86.50
26099;DHT22;13860;52.370;6.764;2022-10-17T05:20:26;14.70;86.50
26099;DHT22;13860;52.370;6.764;2022-10-17T05:23:30;14.70;86.30
26099;DHT22;13860;52.370;6.764;2022-10-17T05:26:36;14.70;86.50
26099;DHT22;13860;52.370;6.764;2022-10-17T05:29:39;14.80;86.60
26099;DHT22;13860;52.370;6.764;2022-10-17T05:32:52;14.80;86.70
26099;DHT22;13860;52.370;6.764;2022-10-17T05:35:57;14.80;86.70
26099;DHT22;13860;52.370;6.764;2022-10-17T05:39:00;14.80;86.80
26099;DHT22;13860;52.370;6.764;2022-10-17T05:42:08;14.80;86.80
26099;DHT22;13860;52.370;6.764;2022-10-17T05:45:12;14.90;86.90
26099;DHT22;13860;52.370;6.764;2022-10-17T05:48:16;14.90;86.90
26099;DHT22;13860;52.370;6.764;2022-10-17T05:51:20;14.90;87.10
26099;DHT22;13860;52.370;6.764;2022-10-17T05:54:24;15.00;87.10
26099;DHT22;13860;52.370;6.764;2022-10-17T05:57:29;15.00;87.10
26099;DHT22;13860;52.370;6.764;2022-10-17T06:00:34;15.00;87.20
26099;DHT22;13860;52.370;6.764;2022-10-17T06:03:39;15.00;87.20
26099;DHT22;13860;52.370;6.764;2022-10-17T06:06:44;15.00;87.20
26099;DHT22;13860;52.370;6.764;2022-10-17T06:09:47;15.10;87.30
26099;DHT22;13860;52.370;6.764;2022-10-17T06:12:53;15.10;87.40
26099;DHT22;13860;52.370;6.764;2022-10-17T06:15:57;15.10;87.30
26099;DHT22;13860;52.370;6.764;2022-10-17T06:19:00;15.10;87.10
26099;DHT22;13860;52.370;6.764;2022-10-17T06:22:05;15.20;87.30
26099;DHT22;13860;52.370;6.764;2022-10-17T06:25:10;15.20;87.40
26099;DHT22;13860;52.370;6.764;2022-10-17T06:28:15;15.20;87.60
26099;DHT22;13860;52.370;6.764;2022-10-17T06:31:20;15.30;87.60
26099;DHT22;13860;52.370;6.764;2022-10-17T06:34:23;15.30;87.40
26099;DHT22;13860;52.370;6.764;2022-10-17T06:37:30;15.30;87.60
26099;DHT22;13860;52.370;6.764;2022-10-17T06:40:40;15.40;87.70
26099;DHT22;13860;52.370;6.764;2022-10-17T06:43:46;15.40;87.80
26099;DHT22;13860;52.370;6.764;2022-10-17T06:47:20;15.50;88.00
26099;DHT22;13860;52.370;6.764;2022-10-17T06:50:26;15.50;88.00
26099;DHT22;13860;52.370;6.764;2022-10-17T06:53:52;15.60;88.10
26099;DHT22;13860;52.370;6.764;2022-10-17T06:57:03;15.60;88.10
26099;DHT22;13860;52.370;6.764;2022-10-17T07:00:31;15.70;88.30
26099;DHT22;13860;52.370;6.764;2022-10-17T07:03:36;15.80;88.30
26099;DHT22;13860;52.370;6.764;2022-10-17T07:06:40;15.80;88.30
26099;DHT22;13860;52.370;6.764;2022-10-17T07:09:50;15.80;88.30
26099;DHT22;13860;52.370;6.764;2022-10-17T07:12:54;15.90;88.40
26099;DHT22;13860;52.370;6.764;2022-10-17T07:16:00;16.00;88.50
26099;DHT22;13860;52.370;6.764;2022-10-17T07:19:05;16.00;88.50
26099;DHT22;13860;52.370;6.764;2022-10-17T07:22:12;16.10;88.60
26099;DHT22;13860;52.370;6.764;2022-10-17T07:25:21;16.10;88.60
26099;DHT22;13860;52.370;6.764;2022-10-17T07:28:33;16.20;88.70
26099;DHT22;13860;52.370;6.764;2022-10-17T07:31:46;16.20;88.70
26099;DHT22;13860;52.370;6.764;2022-10-17T07:34:52;16.30;88.80
26099;DHT22;13860;52.370;6.764;2022-10-17T07:37:56;16.30;88.80
26099;DHT22;13860;52.370;6.764;2022-10-17T07:41:03;16.40;88.80
26099;DHT22;13860;52.370;6.764;2022-10-17T07:44:07;16.50;88.90
26099;DHT22;13860;52.370;6.764;2022-10-17T07:47:20;16.60;88.90
26099;DHT22;13860;52.370;6.764;2022-10-17T07:50:26;16.60;88.90
26099;DHT22;13860;52.370;6.764;2022-10-17T07:53:29;16.70;89.00
26099;DHT22;13860;52.370;6.764;2022-10-17T07:56:33;16.80;89.60
26099;DHT22;13860;52.370;6.764;2022-10-17T07:59:37;16.90;89.00
26099;DHT22;13860;52.370;6.764;2022-10-17T08:02:42;17.00;89.00
26099;DHT22;13860;52.370;6.764;2022-10-17T08:05:46;17.00;89.00
26099;DHT22;13860;52.370;6.764;2022-10-17T08:08:50;17.10;89.00
26099;DHT22;13860;52.370;6.764;2022-10-17T08:11:53;17.20;89.00
26099;DHT22;13860;52.370;6.764;2022-10-17T08:14:57;17.30;89.00
26099;DHT22;13860;52.370;6.764;2022-10-17T08:18:03;17.40;89.00
26099;DHT22;13860;52.370;6.764;2022-10-17T08:21:07;17.50;89.10
26099;DHT22;13860;52.370;6.764;2022-10-17T08:24:11;17.50;89.00
26099;DHT22;13860;52.370;6.764;2022-10-17T08:27:15;17.70;89.00
26099;DHT22;13860;52.370;6.764;2022-10-17T08:30:24;17.80;89.10
26099;DHT22;13860;52.370;6.764;2022-10-17T08:33:33;17.90;89.00
26099;DHT22;13860;52.370;6.764;2022-10-17T08:36:36;17.90;88.90
26099;DHT22;13860;52.370;6.764;2022-10-17T08:39:41;18.00;88.80
26099;DHT22;13860;52.370;6.764;2022-10-17T08:43:02;18.10;88.70
26099;DHT22;13860;52.370;6.764;2022-10-17T08:46:10;18.10;88.60
26099;DHT22;13860;52.370;6.764;2022-10-17T08:49:25;18.30;88.50
26099;DHT22;13860;52.370;6.764;2022-10-17T08:52:38;18.30;88.50
26099;DHT22;13860;52.370;6.764;2022-10-17T08:55:45;18.40;88.30
26099;DHT22;13860;52.370;6.764;2022-10-17T08:58:49;18.40;88.20
26099;DHT22;13860;52.370;6.764;2022-10-17T09:02:00;18.40;88.10
26099;DHT22;13860;52.370;6.764;2022-10-17T09:05:27;18.40;88.00
26099;DHT22;13860;52.370;6.764;2022-10-17T09:08:40;18.50;88.00
26099;DHT22;13860;52.370;6.764;2022-10-17T09:11:55;18.50;87.90
26099;DHT22;13860;52.370;6.764;2022-10-17T09:18:42;18.50;87.90
26099;DHT22;13860;52.370;6.764;2022-10-17T09:21:52;18.50;87.70
26099;DHT22;13860;52.370;6.764;2022-10-17T09:24:58;18.60;87.70
26099;DHT22;13860;52.370;6.764;2022-10-17T09:28:13;18.60;87.70
26099;DHT22;13860;52.370;6.764;2022-10-17T09:31:21;18.60;87.70
26099;DHT22;13860;52.370;6.764;2022-10-17T09:34:27;18.60;87.70
26099;DHT22;13860;52.370;6.764;2022-10-17T09:37:32;18.60;87.70
26099;DHT22;13860;52.370;6.764;2022-10-17T09:40:36;18.60;87.60
26099;DHT22;13860;52.370;6.764;2022-10-17T09:43:40;18.70;87.70
26099;DHT22;13860;52.370;6.764;2022-10-17T09:46:54;18.70;87.70
26099;DHT22;13860;52.370;6.764;2022-10-17T09:50:00;18.70;87.60
26099;DHT22;13860;52.370;6.764;2022-10-17T09:53:11;18.70;87.60
26099;DHT22;13860;52.370;6.764;2022-10-17T09:56:17;18.70;87.60
26099;DHT22;13860;52.370;6.764;2022-10-17T09:59:30;18.60;87.50
26099;DHT22;13860;52.370;6.764;2022-10-17T10:02:34;18.60;87.60
26099;DHT22;13860;52.370;6.764;2022-10-17T10:05:42;18.60;87.60
26099;DHT22;13860;52.370;6.764;2022-10-17T10:09:02;18.60;87.60
26099;DHT22;13860;52.370;6.764;2022-10-17T10:12:18;18.60;87.80
26099;DHT22;13860;52.370;6.764;2022-10-17T10:15:36;18.60;87.80
26099;DHT22;13860;52.370;6.764;2022-10-17T10:18:42;18.60;87.80
26099;DHT22;13860;52.370;6.764;2022-10-17T10:21:55;18.60;87.70
26099;DHT22;13860;52.370;6.764;2022-10-17T10:25:14;18.60;87.80
26099;DHT22;13860;52.370;6.764;2022-10-17T10:28:21;18.60;87.80
26099;DHT22;13860;52.370;6.764;2022-10-17T10:31:29;18.60;87.80
26099;DHT22;13860;52.370;6.764;2022-10-17T10:34:34;18.50;87.80
26099;DHT22;13860;52.370;6.764;2022-10-17T10:37:42;18.50;87.90
26099;DHT22;13860;52.370;6.764;2022-10-17T10:40:50;18.50;87.90
26099;DHT22;13860;52.370;6.764;2022-10-17T10:43:54;18.50;87.90
26099;DHT22;13860;52.370;6.764;2022-10-17T10:47:13;18.40;87.90
26099;DHT22;13860;52.370;6.764;2022-10-17T10:50:24;18.40;88.00
26099;DHT22;13860;52.370;6.764;2022-10-17T10:53:34;18.40;88.00
26099;DHT22;13860;52.370;6.764;2022-10-17T10:56:45;18.40;88.00
26099;DHT22;13860;52.370;6.764;2022-10-17T10:59:58;18.40;88.10
26099;DHT22;13860;52.370;6.764;2022-10-17T11:03:09;18.40;88.00
26099;DHT22;13860;52.370;6.764;2022-10-17T11:06:19;18.40;88.20
26099;DHT22;13860;52.370;6.764;2022-10-17T11:09:32;18.40;88.10
26099;DHT22;13860;52.370;6.764;2022-10-17T11:12:43;18.30;88.10
26099;DHT22;13860;52.370;6.764;2022-10-17T11:15:52;18.30;88.10
26099;DHT22;13860;52.370;6.764;2022-10-17T11:19:07;18.30;88.20
26099;DHT22;13860;52.370;6.764;2022-10-17T11:22:15;18.30;88.20
26099;DHT22;13860;52.370;6.764;2022-10-17T11:25:30;18.30;88.20
26099;DHT22;13860;52.370;6.764;2022-10-17T11:28:36;18.30;88.40
26099;DHT22;13860;52.370;6.764;2022-10-17T11:31:43;18.30;88.30
26099;DHT22;13860;52.370;6.764;2022-10-17T11:34:51;18.20;88.40
26099;DHT22;13860;52.370;6.764;2022-10-17T11:38:03;18.20;88.40
26099;DHT22;13860;52.370;6.764;2022-10-17T11:41:11;18.20;88.50
26099;DHT22;13860;52.370;6.764;2022-10-17T11:44:23;18.20;88.40
26099;DHT22;13860;52.370;6.764;2022-10-17T11:47:35;18.20;88.40
26099;DHT22;13860;52.370;6.764;2022-10-17T11:50:44;18.20;88.50
26099;DHT22;13860;52.370;6.764;2022-10-17T11:54:12;18.20;88.60
26099;DHT22;13860;52.370;6.764;2022-10-17T11:57:31;18.20;88.60
26099;DHT22;13860;52.370;6.764;2022-10-17T12:00:49;18.20;88.80
26099;DHT22;13860;52.370;6.764;2022-10-17T12:04:15;18.20;88.80
26099;DHT22;13860;52.370;6.764;2022-10-17T12:07:26;18.20;88.90
26099;DHT22;13860;52.370;6.764;2022-10-17T12:10:38;18.20;88.90
26099;DHT22;13860;52.370;6.764;2022-10-17T12:13:50;18.20;88.90
26099;DHT22;13860;52.370;6.764;2022-10-17T12:16:56;18.30;89.00
26099;DHT22;13860;52.370;6.764;2022-10-17T12:20:16;18.20;89.00
26099;DHT22;13860;52.370;6.764;2022-10-17T12:23:27;18.20;89.20
26099;DHT22;13860;52.370;6.764;2022-10-17T12:26:31;18.30;89.10
26099;DHT22;13860;52.370;6.764;2022-10-17T12:29:35;18.30;89.20
26099;DHT22;13860;52.370;6.764;2022-10-17T12:33:00;18.30;89.20
26099;DHT22;13860;52.370;6.764;2022-10-17T12:36:40;18.30;89.40
26099;DHT22;13860;52.370;6.764;2022-10-17T12:39:44;18.30;89.50
26099;DHT22;13860;52.370;6.764;2022-10-17T12:42:49;18.30;89.30
26099;DHT22;13860;52.370;6.764;2022-10-17T12:45:53;18.30;89.40
26099;DHT22;13860;52.370;6.764;2022-10-17T12:49:20;18.40;89.40
26099;DHT22;13860;52.370;6.764;2022-10-17T12:52:27;18.40;89.40
26099;DHT22;13860;52.370;6.764;2022-10-17T12:55:58;18.40;89.40
26099;DHT22;13860;52.370;6.764;2022-10-17T12:59:08;18.40;89.40
26099;DHT22;13860;52.370;6.764;2022-10-17T13:02:17;18.40;89.40
26099;DHT22;13860;52.370;6.764;2022-10-17T13:05:26;18.40;89.40
26099;DHT22;13860;52.370;6.764;2022-10-17T13:08:33;18.40;89.40
26099;DHT22;13860;52.370;6.764;2022-10-17T13:11:41;18.40;89.40
26099;DHT22;13860;52.370;6.764;2022-10-17T13:14:46;18.50;89.50
26099;DHT22;13860;52.370;6.764;2022-10-17T13:17:57;18.50;90.00
26099;DHT22;13860;52.370;6.764;2022-10-17T13:21:04;18.50;89.50
26099;DHT22;13860;52.370;6.764;2022-10-17T13:24:19;18.50;89.50
26099;DHT22;13860;52.370;6.764;2022-10-17T13:27:29;18.50;89.60
26099;DHT22;13860;52.370;6.764;2022-10-17T13:30:34;18.50;89.50
26099;DHT22;13860;52.370;6.764;2022-10-17T13:33:39;18.50;89.50
26099;DHT22;13860;52.370;6.764;2022-10-17T13:36:45;18.50;89.50
26099;DHT22;13860;52.370;6.764;2022-10-17T13:39:50;18.50;89.60
26099;DHT22;13860;52.370;6.764;2022-10-17T13:42:59;18.50;89.70
26099;DHT22;13860;52.370;6.764;2022-10-17T13:46:05;18.50;89.70
26099;DHT22;13860;52.370;6.764;2022-10-17T13:49:32;18.50;89.70
26099;DHT22;13860;52.370;6.764;2022-10-17T13:52:36;18.50;89.70
26099;DHT22;13860;52.370;6.764;2022-10-17T13:55:50;18.50;89.80
26099;DHT22;13860;52.370;6.764;2022-10-17T13:59:21;18.50;89.90
26099;DHT22;13860;52.370;6.764;2022-10-17T14:02:27;18.60;90.00
26099;DHT22;13860;52.370;6.764;2022-10-17T14:05:32;18.50;89.80
26099;DHT22;13860;52.370;6.764;2022-10-17T14:08:37;18.50;89.90
26099;DHT22;13860;52.370;6.764;2022-10-17T14:11:43;18.60;90.00
26099;DHT22;13860;52.370;6.764;2022-10-17T14:14:51;18.60;89.90
26099;DHT22;13860;52.370;6.764;2022-10-17T14:18:17;18.60;90.00
26099;DHT22;13860;52.370;6.764;2022-10-17T14:21:24;18.60;90.00
26099;DHT22;13860;52.370;6.764;2022-10-17T14:24:45;18.60;90.00
26099;DHT22;13860;52.370;6.764;2022-10-17T14:27:52;18.60;89.90
26099;DHT22;13860;52.370;6.764;2022-10-17T14:31:18;18.60;89.80
26099;DHT22;13860;52.370;6.764;2022-10-17T14:34:29;18.60;89.80
26099;DHT22;13860;52.370;6.764;2022-10-17T14:37:38;18.60;89.80
26099;DHT22;13860;52.370;6.764;2022-10-17T14:40:48;18.60;89.80
26099;DHT22;13860;52.370;6.764;2022-10-17T14:43:55;18.60;89.80
26099;DHT22;13860;52.370;6.764;2022-10-17T14:47:03;18.60;89.80
26099;DHT22;13860;52.370;6.764;2022-10-17T14:50:28;18.60;89.90
26099;DHT22;13860;52.370;6.764;2022-10-17T14:53:32;18.60;89.90
26099;DHT22;13860;52.370;6.764;2022-10-17T14:56:40;18.50;89.80
26099;DHT22;13860;52.370;6.764;2022-10-17T14:59:44;18.60;89.90
26099;DHT22;13860;52.370;6.764;2022-10-17T15:02:59;18.50;89.90
26099;DHT22;13860;52.370;6.764;2022-10-17T15:06:14;18.50;89.90
26099;DHT22;13860;52.370;6.764;2022-10-17T15:09:19;18.50;90.00
26099;DHT22;13860;52.370;6.764;2022-10-17T15:12:24;18.50;89.90
26099;DHT22;13860;52.370;6.764;2022-10-17T15:15:29;18.50;90.00
26099;DHT22;13860;52.370;6.764;2022-10-17T15:18:35;18.50;90.00
26099;DHT22;13860;52.370;6.764;2022-10-17T15:21:39;18.50;90.00
26099;DHT22;13860;52.370;6.764;2022-10-17T15:24:48;18.50;90.00
26099;DHT22;13860;52.370;6.764;2022-10-17T15:27:52;18.50;90.00
26099;DHT22;13860;52.370;6.764;2022-10-17T15:30:56;18.50;90.00
26099;DHT22;13860;52.370;6.764;2022-10-17T15:34:01;18.50;90.00
26099;DHT22;13860;52.370;6.764;2022-10-17T15:37:06;18.50;90.00
26099;DHT22;13860;52.370;6.764;2022-10-17T15:40:18;18.50;90.00
26099;DHT22;13860;52.370;6.764;2022-10-17T15:43:25;18.50;90.00
26099;DHT22;13860;52.370;6.764;2022-10-17T15:46:32;18.50;89.90
26099;DHT22;13860;52.370;6.764;2022-10-17T15:49:38;18.50;89.90
26099;DHT22;13860;52.370;6.764;2022-10-17T15:52:42;18.50;89.80
26099;DHT22;13860;52.370;6.764;2022-10-17T15:55:47;18.50;89.80
26099;DHT22;13860;52.370;6.764;2022-10-17T15:58:51;18.50;89.80
26099;DHT22;13860;52.370;6.764;2022-10-17T16:01:55;18.50;89.80
26099;DHT22;13860;52.370;6.764;2022-10-17T16:05:01;18.50;89.70
26099;DHT22;13860;52.370;6.764;2022-10-17T16:08:05;18.50;89.70
26099;DHT22;13860;52.370;6.764;2022-10-17T16:11:13;18.50;89.70
26099;DHT22;13860;52.370;6.764;2022-10-17T16:14:19;18.40;89.60
26099;DHT22;13860;52.370;6.764;2022-10-17T16:17:22;18.40;89.70
26099;DHT22;13860;52.370;6.764;2022-10-17T16:20:28;18.40;89.60
26099;DHT22;13860;52.370;6.764;2022-10-17T16:23:32;18.40;89.60
26099;DHT22;13860;52.370;6.764;2022-10-17T16:26:36;18.40;89.60
26099;DHT22;13860;52.370;6.764;2022-10-17T16:29:39;18.40;89.70
26099;DHT22;13860;52.370;6.764;2022-10-17T16:32:43;18.40;89.60
26099;DHT22;13860;52.370;6.764;2022-10-17T16:35:49;18.30;89.60
26099;DHT22;13860;52.370;6.764;2022-10-17T16:38:53;18.30;89.60
26099;DHT22;13860;52.370;6.764;2022-10-17T16:41:57;18.30;89.60
26099;DHT22;13860;52.370;6.764;2022-10-17T16:45:00;18.30;89.60
26099;DHT22;13860;52.370;6.764;2022-10-17T16:48:04;18.30;89.60
26099;DHT22;13860;52.370;6.764;2022-10-17T16:51:10;18.20;89.50
26099;DHT22;13860;52.370;6.764;2022-10-17T16:54:14;18.20;89.50
26099;DHT22;13860;52.370;6.764;2022-10-17T16:57:18;18.20;89.30
26099;DHT22;13860;52.370;6.764;2022-10-17T17:00:21;18.20;89.40
26099;DHT22;13860;52.370;6.764;2022-10-17T17:03:25;18.10;89.30
26099;DHT22;13860;52.370;6.764;2022-10-17T17:06:31;18.10;89.40
26099;DHT22;13860;52.370;6.764;2022-10-17T17:09:34;18.10;89.50
26099;DHT22;13860;52.370;6.764;2022-10-17T17:12:38;18.00;89.40
26099;DHT22;13860;52.370;6.764;2022-10-17T17:15:42;18.00;89.50
26099;DHT22;13860;52.370;6.764;2022-10-17T17:19:09;17.90;89.40
26099;DHT22;13860;52.370;6.764;2022-10-17T17:22:15;17.90;89.50
26099;DHT22;13860;52.370;6.764;2022-10-17T17:25:19;17.90;89.50
26099;DHT22;13860;52.370;6.764;2022-10-17T17:28:22;17.80;89.50
26099;DHT22;13860;52.370;6.764;2022-10-17T17:31:28;17.80;89.50
26099;DHT22;13860;52.370;6.764;2022-10-17T17:34:35;17.80;89.50
26099;DHT22;13860;52.370;6.764;2022-10-17T17:37:40;17.70;89.50
26099;DHT22;13860;52.370;6.764;2022-10-17T17:40:45;17.70;89.50
26099;DHT22;13860;52.370;6.764;2022-10-17T17:43:52;17.70;89.60
26099;DHT22;13860;52.370;6.764;2022-10-17T17:46:56;17.70;89.60
26099;DHT22;13860;52.370;6.764;2022-10-17T17:50:00;17.60;89.60
26099;DHT22;13860;52.370;6.764;2022-10-17T17:53:06;17.60;89.60
26099;DHT22;13860;52.370;6.764;2022-10-17T17:56:11;17.60;89.60
26099;DHT22;13860;52.370;6.764;2022-10-17T17:59:16;17.50;89.50
26099;DHT22;13860;52.370;6.764;2022-10-17T18:02:20;17.50;89.50
26099;DHT22;13860;52.370;6.764;2022-10-17T18:05:23;17.50;89.60
26099;DHT22;13860;52.370;6.764;2022-10-17T18:08:29;17.50;89.60
26099;DHT22;13860;52.370;6.764;2022-10-17T18:11:33;17.50;89.70
26099;DHT22;13860;52.370;6.764;2022-10-17T18:14:37;17.40;89.70
26099;DHT22;13860;52.370;6.764;2022-10-17T18:17:41;17.40;89.70
26099;DHT22;13860;52.370;6.764;2022-10-17T18:20:45;17.40;89.80
26099;DHT22;13860;52.370;6.764;2022-10-17T18:23:50;17.40;89.80
26099;DHT22;13860;52.370;6.764;2022-10-17T18:26:54;17.30;89.80
26099;DHT22;13860;52.370;6.764;2022-10-17T18:30:00;17.30;89.80
26099;DHT22;13860;52.370;6.764;2022-10-17T18:33:03;17.30;89.90
26099;DHT22;13860;52.370;6.764;2022-10-17T18:36:10;17.30;90.00
26099;DHT22;13860;52.370;6.764;2022-10-17T18:39:15;17.30;90.00
26099;DHT22;13860;52.370;6.764;2022-10-17T18:42:19;17.30;90.00
26099;DHT22;13860;52.370;6.764;2022-10-17T18:45:23;17.30;90.30
26099;DHT22;13860;52.370;6.764;2022-10-17T18:48:26;17.30;90.00
26099;DHT22;13860;52.370;6.764;2022-10-17T18:51:30;17.20;90.00
26099;DHT22;13860;52.370;6.764;2022-10-17T18:54:35;17.20;90.00
26099;DHT22;13860;52.370;6.764;2022-10-17T18:57:39;17.20;90.00
26099;DHT22;13860;52.370;6.764;2022-10-17T19:00:43;17.20;90.00
26099;DHT22;13860;52.370;6.764;2022-10-17T19:03:48;17.20;90.00
26099;DHT22;13860;52.370;6.764;2022-10-17T19:06:52;17.20;90.00
26099;DHT22;13860;52.370;6.764;2022-10-17T19:09:57;17.20;90.00
26099;DHT22;13860;52.370;6.764;2022-10-17T19:13:01;17.20;90.10
26099;DHT22;13860;52.370;6.764;2022-10-17T19:16:05;17.20;90.10
26099;DHT22;13860;52.370;6.764;2022-10-17T19:19:12;17.10;90.10
26099;DHT22;13860;52.370;6.764;2022-10-17T19:22:16;17.10;90.10
26099;DHT22;13860;52.370;6.764;2022-10-17T19:25:21;17.10;90.10
26099;DHT22;13860;52.370;6.764;2022-10-17T19:28:25;17.10;90.10
26099;DHT22;13860;52.370;6.764;2022-10-17T19:31:30;17.10;90.10
26099;DHT22;13860;52.370;6.764;2022-10-17T19:34:34;17.10;90.10
26099;DHT22;13860;52.370;6.764;2022-10-17T19:37:37;17.10;90.10
26099;DHT22;13860;52.370;6.764;2022-10-17T19:40:43;17.10;90.10
26099;DHT22;13860;52.370;6.764;2022-10-17T19:43:47;17.10;90.10
26099;DHT22;13860;52.370;6.764;2022-10-17T19:46:51;17.00;90.10
26099;DHT22;13860;52.370;6.764;2022-10-17T19:49:54;17.00;90.10